Glorieta, NM (87535)

7:29 AM MDT on October 24, 2014 (GMT -0600)
Santa Fe | Change Station
CLOSE
Current Station
Personal Weather Station
Location: Santa Fe, NM
Elevation: 7674 ft
Nearby Weather Stations

Elev 7674 ft 35.64 °N, 105.90 °W | Updated 28 seconds ago

Clear
Clear
53.4 °F
Feels Like 53.4 °F
N
8.0
Wind Variable Wind from WNW
Gusts 22.0 mph

Today
High -- | Low -- °F
--% Chance of Precip.
Yesterday
High -- | Low -- °F
Precip. -- in
7:17 AM 6:16 PM
New Moon, 0% visible
Pressure 30.14 in
Visibility 10.0 miles
Clouds Clear
Dew Point 32 °F
Humidity 43%
Rainfall 0.00 in
Snow Depth 2 in , 1 in , 3 in
UV 0.0 out of 12
Pollen 3.50 out of 12
Air Quality Not available.
Flu Activity Sporadic
METAR KSAF 241253Z 01011KT 10SM CLR 07/M01 A3031 RMK AO2 SLP206 T00721011

More Conditions Fewer Conditions

Pressure 30.14 in
Visibility 10.0 miles
Clouds Clear
Dew Point 32 °F
Humidity 43%
Rainfall 0.00 in
Snow Depth 2 in , 1 in , 3 in
UV 0.0 out of 12
Pollen 3.50 out of 12
Air Quality Not available.
Flu Activity Sporadic
METAR KSAF 241253Z 01011KT 10SM CLR 07/M01 A3031 RMK AO2 SLP206 T00721011

More Conditions Fewer Conditions

10-Day Weather Forecast

Almanac

Astronomy

Oct. 24, 2014 Rise Set
Actual Time 7:17 AM MDT 6:16 PM MDT
Civil Twilight 6:51 AM MDT 6:42 PM MDT
Nautical Twilight 6:21 AM MDT 7:12 PM MDT
Astronomical Twilight 5:52 AM MDT 7:41 PM MDT
Moon 7:58 AM MDT 7:00 PM MDT
Length of Visible Light 11h 50m
Length of Day
10h 58m
Tomorrow will be 2m 4s shorter.
New Moon, 0% of the Moon is Illuminated
Today
New Moon
Oct 30
First Quarter
Nov 6
Full
Nov 14
Last Quarter
Nov 22
New

Today's Extremes

State Highs State Lows

Community

WunderPhotos

Upload Photos

1,764,549 photos uploaded!

WunderBlogs® & News

Nearby

Snow Depth

Station Depth Elevation
Santa Fe 2 in 11445 ft
Elk Cabin 1 in 8210 ft
Wesner Springs 3 in 11120 ft
Quemazon 0 in 9500 ft
Gallegos Peak 0 in 9800 ft

Earthquake Activity

City Distance Mag. Time & Date
No recent earthquake activity has been reported nearby.
Minimum magnitude displayed is 2.5.

Coastal Water Temperatures

Place Temperature
No Stations Reporting

Nearby Weather Stations